Terminal Aerodrome Forecast
Issued by NWS Brownsville, TX

Home | Current Version | Previous Version | Text Only | Print | Product List | Glossary On
Versions: 1 2 3 4 5 6 7 8 9 10 11 12 13 14
000
FTUS44 KBRO 220500
TAFMFE
TAF
KMFE 220520Z 2206/2306 15010KT P6SM BKN018
     FM220800 14006KT P6SM BKN015
     FM221400 15010G16KT P6SM FEW025
     FM221800 16015G20KT P6SM FEW040
     FM222300 14015KT P6SM SKC=

USA.gov is the U.S. government's official web portal to all federal, state and local government web resources and services.